sensor_id;sensor_type;location;lat;lon;timestamp;temperature;humidity
3466;DHT22;1747;48.884;9.160;2022-08-07T00:05:32;16.90;83.10
3466;DHT22;1747;48.884;9.160;2022-08-07T00:08:00;16.80;82.30
3466;DHT22;1747;48.884;9.160;2022-08-07T00:10:27;16.60;84.50
3466;DHT22;1747;48.884;9.160;2022-08-07T00:12:54;16.50;85.10
3466;DHT22;1747;48.884;9.160;2022-08-07T00:15:21;16.40;85.30
3466;DHT22;1747;48.884;9.160;2022-08-07T00:17:50;16.40;84.90
3466;DHT22;1747;48.884;9.160;2022-08-07T00:37:07;16.30;86.20
3466;DHT22;1747;48.884;9.160;2022-08-07T00:39:34;16.30;87.00
3466;DHT22;1747;48.884;9.160;2022-08-07T00:42:01;16.30;86.60
3466;DHT22;1747;48.884;9.160;2022-08-07T00:44:28;16.30;86.00
3466;DHT22;1747;48.884;9.160;2022-08-07T00:46:55;16.30;87.70
3466;DHT22;1747;48.884;9.160;2022-08-07T00:49:22;16.30;87.40
3466;DHT22;1747;48.884;9.160;2022-08-07T01:05:49;15.80;91.00
3466;DHT22;1747;48.884;9.160;2022-08-07T01:08:17;15.70;91.30
3466;DHT22;1747;48.884;9.160;2022-08-07T01:10:44;15.60;91.70
3466;DHT22;1747;48.884;9.160;2022-08-07T01:13:10;15.50;91.60
3466;DHT22;1747;48.884;9.160;2022-08-07T01:15:38;15.40;92.10
3466;DHT22;1747;48.884;9.160;2022-08-07T01:38:19;15.20;95.30
3466;DHT22;1747;48.884;9.160;2022-08-07T01:40:47;15.20;95.30
3466;DHT22;1747;48.884;9.160;2022-08-07T01:43:14;15.30;95.20
3466;DHT22;1747;48.884;9.160;2022-08-07T01:45:42;15.20;95.90
3466;DHT22;1747;48.884;9.160;2022-08-07T01:48:09;15.20;96.00
3466;DHT22;1747;48.884;9.160;2022-08-07T01:50:37;15.20;96.70
3466;DHT22;1747;48.884;9.160;2022-08-07T01:53:05;15.10;96.60
3466;DHT22;1747;48.884;9.160;2022-08-07T05:58:09;17.10;98.60
3466;DHT22;1747;48.884;9.160;2022-08-07T06:00:36;17.30;98.20
3466;DHT22;1747;48.884;9.160;2022-08-07T06:03:05;17.40;98.40
3466;DHT22;1747;48.884;9.160;2022-08-07T06:05:34;17.50;98.10
3466;DHT22;1747;48.884;9.160;2022-08-07T06:08:02;17.50;98.20
3466;DHT22;1747;48.884;9.160;2022-08-07T06:10:29;17.60;98.00
3466;DHT22;1747;48.884;9.160;2022-08-07T06:12:56;17.70;98.30
3466;DHT22;1747;48.884;9.160;2022-08-07T06:15:28;17.80;98.20
3466;DHT22;1747;48.884;9.160;2022-08-07T06:17:55;17.90;98.30
3466;DHT22;1747;48.884;9.160;2022-08-07T06:20:23;18.00;98.40
3466;DHT22;1747;48.884;9.160;2022-08-07T06:22:51;18.10;98.30
3466;DHT22;1747;48.884;9.160;2022-08-07T06:25:18;18.20;99.90
3466;DHT22;1747;48.884;9.160;2022-08-07T06:27:45;18.20;99.90
3466;DHT22;1747;48.884;9.160;2022-08-07T06:30:12;18.30;99.90
3466;DHT22;1747;48.884;9.160;2022-08-07T06:32:41;18.40;99.90
3466;DHT22;1747;48.884;9.160;2022-08-07T06:35:08;18.50;99.90
3466;DHT22;1747;48.884;9.160;2022-08-07T06:37:35;18.60;99.90
3466;DHT22;1747;48.884;9.160;2022-08-07T06:40:03;18.60;99.90
3466;DHT22;1747;48.884;9.160;2022-08-07T06:42:32;18.70;99.90
3466;DHT22;1747;48.884;9.160;2022-08-07T06:45:03;18.80;99.90
3466;DHT22;1747;48.884;9.160;2022-08-07T06:47:32;18.90;99.90
3466;DHT22;1747;48.884;9.160;2022-08-07T06:50:00;18.90;99.90
3466;DHT22;1747;48.884;9.160;2022-08-07T06:52:30;19.00;99.90
3466;DHT22;1747;48.884;9.160;2022-08-07T06:54:59;19.10;99.90
3466;DHT22;1747;48.884;9.160;2022-08-07T06:57:29;19.20;99.90
3466;DHT22;1747;48.884;9.160;2022-08-07T06:59:58;19.30;99.90
3466;DHT22;1747;48.884;9.160;2022-08-07T07:02:25;19.50;99.90
3466;DHT22;1747;48.884;9.160;2022-08-07T07:04:53;19.60;99.70
3466;DHT22;1747;48.884;9.160;2022-08-07T07:07:21;19.80;99.20
3466;DHT22;1747;48.884;9.160;2022-08-07T07:09:49;19.90;99.10
3466;DHT22;1747;48.884;9.160;2022-08-07T07:12:25;20.00;98.60
3466;DHT22;1747;48.884;9.160;2022-08-07T07:14:59;20.10;98.80
3466;DHT22;1747;48.884;9.160;2022-08-07T07:17:32;20.20;98.30
3466;DHT22;1747;48.884;9.160;2022-08-07T07:20:01;20.20;98.30
3466;DHT22;1747;48.884;9.160;2022-08-07T07:22:31;20.40;99.00
3466;DHT22;1747;48.884;9.160;2022-08-07T07:24:59;20.40;99.00
3466;DHT22;1747;48.884;9.160;2022-08-07T07:27:31;20.30;99.50
3466;DHT22;1747;48.884;9.160;2022-08-07T07:30:02;20.20;99.70
3466;DHT22;1747;48.884;9.160;2022-08-07T07:32:33;20.30;99.60
3466;DHT22;1747;48.884;9.160;2022-08-07T07:35:04;20.40;99.30
3466;DHT22;1747;48.884;9.160;2022-08-07T07:37:32;20.50;99.40
3466;DHT22;1747;48.884;9.160;2022-08-07T07:40:03;20.50;99.20
3466;DHT22;1747;48.884;9.160;2022-08-07T07:42:32;20.60;99.70
3466;DHT22;1747;48.884;9.160;2022-08-07T07:45:00;20.80;99.50
3466;DHT22;1747;48.884;9.160;2022-08-07T07:47:28;20.90;98.80
3466;DHT22;1747;48.884;9.160;2022-08-07T07:49:56;21.00;98.90
3466;DHT22;1747;48.884;9.160;2022-08-07T07:52:24;21.10;98.80
3466;DHT22;1747;48.884;9.160;2022-08-07T07:54:54;21.20;98.20
3466;DHT22;1747;48.884;9.160;2022-08-07T07:57:22;21.40;97.50
3466;DHT22;1747;48.884;9.160;2022-08-07T07:59:50;21.50;98.10
3466;DHT22;1747;48.884;9.160;2022-08-07T08:02:18;21.60;98.00
3466;DHT22;1747;48.884;9.160;2022-08-07T08:04:47;21.80;97.80
3466;DHT22;1747;48.884;9.160;2022-08-07T08:07:14;21.80;96.60
3466;DHT22;1747;48.884;9.160;2022-08-07T08:09:48;21.90;97.10
3466;DHT22;1747;48.884;9.160;2022-08-07T08:12:17;22.00;96.60
3466;DHT22;1747;48.884;9.160;2022-08-07T08:14:44;22.20;96.00
3466;DHT22;1747;48.884;9.160;2022-08-07T08:17:12;22.40;95.80
3466;DHT22;1747;48.884;9.160;2022-08-07T08:19:41;22.50;95.30
3466;DHT22;1747;48.884;9.160;2022-08-07T08:22:10;22.60;95.10
3466;DHT22;1747;48.884;9.160;2022-08-07T08:24:55;22.80;94.90
3466;DHT22;1747;48.884;9.160;2022-08-07T08:27:43;23.00;94.10
3466;DHT22;1747;48.884;9.160;2022-08-07T08:30:12;23.20;91.80
3466;DHT22;1747;48.884;9.160;2022-08-07T08:32:41;23.30;90.70
3466;DHT22;1747;48.884;9.160;2022-08-07T08:35:11;23.50;88.80
3466;DHT22;1747;48.884;9.160;2022-08-07T08:37:40;23.60;88.10
3466;DHT22;1747;48.884;9.160;2022-08-07T08:40:20;23.70;87.10
3466;DHT22;1747;48.884;9.160;2022-08-07T08:42:55;23.90;83.50
3466;DHT22;1747;48.884;9.160;2022-08-07T08:45:36;24.10;80.90
3466;DHT22;1747;48.884;9.160;2022-08-07T08:48:07;24.10;80.80
3466;DHT22;1747;48.884;9.160;2022-08-07T08:50:39;24.20;77.60
3466;DHT22;1747;48.884;9.160;2022-08-07T08:53:13;24.30;74.60
3466;DHT22;1747;48.884;9.160;2022-08-07T08:55:48;24.40;75.00
3466;DHT22;1747;48.884;9.160;2022-08-07T08:58:26;24.50;73.20
3466;DHT22;1747;48.884;9.160;2022-08-07T09:00:59;24.60;72.30
3466;DHT22;1747;48.884;9.160;2022-08-07T09:03:31;24.50;72.00
3466;DHT22;1747;48.884;9.160;2022-08-07T09:06:04;24.60;72.70
3466;DHT22;1747;48.884;9.160;2022-08-07T09:08:39;24.50;73.20
3466;DHT22;1747;48.884;9.160;2022-08-07T09:11:17;24.60;72.10
3466;DHT22;1747;48.884;9.160;2022-08-07T09:14:03;24.80;69.90
3466;DHT22;1747;48.884;9.160;2022-08-07T09:16:40;25.00;70.10
3466;DHT22;1747;48.884;9.160;2022-08-07T09:19:19;25.00;69.20
3466;DHT22;1747;48.884;9.160;2022-08-07T09:21:51;25.00;69.60
3466;DHT22;1747;48.884;9.160;2022-08-07T09:24:30;25.10;69.50
3466;DHT22;1747;48.884;9.160;2022-08-07T09:27:04;25.30;67.20
3466;DHT22;1747;48.884;9.160;2022-08-07T09:29:45;25.40;68.30
3466;DHT22;1747;48.884;9.160;2022-08-07T09:32:27;25.30;67.00
3466;DHT22;1747;48.884;9.160;2022-08-07T09:35:02;25.40;67.30
3466;DHT22;1747;48.884;9.160;2022-08-07T09:37:38;25.60;66.30
3466;DHT22;1747;48.884;9.160;2022-08-07T09:40:15;25.70;65.40
3466;DHT22;1747;48.884;9.160;2022-08-07T09:42:51;25.80;67.40
3466;DHT22;1747;48.884;9.160;2022-08-07T09:45:41;25.90;67.90
3466;DHT22;1747;48.884;9.160;2022-08-07T09:48:16;26.00;65.30
3466;DHT22;1747;48.884;9.160;2022-08-07T09:51:05;26.10;64.40
3466;DHT22;1747;48.884;9.160;2022-08-07T09:53:36;26.10;63.20
3466;DHT22;1747;48.884;9.160;2022-08-07T09:59:24;26.10;61.40
3466;DHT22;1747;48.884;9.160;2022-08-07T10:02:08;26.10;60.40
3466;DHT22;1747;48.884;9.160;2022-08-07T10:05:02;26.10;61.10
3466;DHT22;1747;48.884;9.160;2022-08-07T10:07:53;26.10;62.10
3466;DHT22;1747;48.884;9.160;2022-08-07T10:10:29;26.20;61.80
3466;DHT22;1747;48.884;9.160;2022-08-07T10:13:22;26.20;63.70
3466;DHT22;1747;48.884;9.160;2022-08-07T10:16:03;26.40;61.80
3466;DHT22;1747;48.884;9.160;2022-08-07T10:19:01;26.40;62.40
3466;DHT22;1747;48.884;9.160;2022-08-07T10:21:46;26.50;62.70
3466;DHT22;1747;48.884;9.160;2022-08-07T10:24:34;26.60;58.60
3466;DHT22;1747;48.884;9.160;2022-08-07T10:27:19;26.70;59.40
3466;DHT22;1747;48.884;9.160;2022-08-07T10:30:04;26.70;57.00
3466;DHT22;1747;48.884;9.160;2022-08-07T10:35:52;26.60;55.20
3466;DHT22;1747;48.884;9.160;2022-08-07T10:38:38;26.70;55.20
3466;DHT22;1747;48.884;9.160;2022-08-07T10:41:14;26.70;55.00
3466;DHT22;1747;48.884;9.160;2022-08-07T10:43:55;26.80;55.30
3466;DHT22;1747;48.884;9.160;2022-08-07T10:46:28;26.80;54.90
3466;DHT22;1747;48.884;9.160;2022-08-07T10:49:06;26.90;56.00
3466;DHT22;1747;48.884;9.160;2022-08-07T10:51:47;27.00;55.70
3466;DHT22;1747;48.884;9.160;2022-08-07T10:54:24;27.10;54.80
3466;DHT22;1747;48.884;9.160;2022-08-07T10:57:02;27.10;53.50
3466;DHT22;1747;48.884;9.160;2022-08-07T10:59:40;27.10;55.80
3466;DHT22;1747;48.884;9.160;2022-08-07T11:02:17;27.30;54.20
3466;DHT22;1747;48.884;9.160;2022-08-07T11:04:58;27.30;55.70
3466;DHT22;1747;48.884;9.160;2022-08-07T11:07:37;27.50;55.10
3466;DHT22;1747;48.884;9.160;2022-08-07T11:10:11;27.50;54.60
3466;DHT22;1747;48.884;9.160;2022-08-07T11:12:48;27.50;54.60
3466;DHT22;1747;48.884;9.160;2022-08-07T11:15:21;27.60;55.90
3466;DHT22;1747;48.884;9.160;2022-08-07T11:17:53;27.60;54.80
3466;DHT22;1747;48.884;9.160;2022-08-07T11:20:35;27.80;54.00
3466;DHT22;1747;48.884;9.160;2022-08-07T11:23:10;27.90;51.70
3466;DHT22;1747;48.884;9.160;2022-08-07T11:25:47;27.80;52.80
3466;DHT22;1747;48.884;9.160;2022-08-07T11:28:20;27.80;54.10
3466;DHT22;1747;48.884;9.160;2022-08-07T11:30:54;28.00;53.70
3466;DHT22;1747;48.884;9.160;2022-08-07T11:33:27;28.10;53.60
3466;DHT22;1747;48.884;9.160;2022-08-07T11:36:06;27.90;52.80
3466;DHT22;1747;48.884;9.160;2022-08-07T11:38:39;28.00;53.60
3466;DHT22;1747;48.884;9.160;2022-08-07T11:41:13;28.10;52.60
3466;DHT22;1747;48.884;9.160;2022-08-07T11:43:48;28.30;50.80
3466;DHT22;1747;48.884;9.160;2022-08-07T11:46:37;28.30;49.70
3466;DHT22;1747;48.884;9.160;2022-08-07T11:49:38;28.30;50.30
3466;DHT22;1747;48.884;9.160;2022-08-07T11:52:21;28.40;50.50
3466;DHT22;1747;48.884;9.160;2022-08-07T11:55:03;28.60;49.30
3466;DHT22;1747;48.884;9.160;2022-08-07T11:57:36;28.70;51.00
3466;DHT22;1747;48.884;9.160;2022-08-07T12:00:09;28.90;51.90
3466;DHT22;1747;48.884;9.160;2022-08-07T12:02:56;29.10;51.00
3466;DHT22;1747;48.884;9.160;2022-08-07T12:05:30;29.50;49.90
3466;DHT22;1747;48.884;9.160;2022-08-07T12:08:03;29.90;50.70
3466;DHT22;1747;48.884;9.160;2022-08-07T12:10:37;30.50;49.70
3466;DHT22;1747;48.884;9.160;2022-08-07T12:13:08;31.20;47.50
3466;DHT22;1747;48.884;9.160;2022-08-07T12:15:40;31.60;46.80
3466;DHT22;1747;48.884;9.160;2022-08-07T15:41:31;41.00;34.50
3466;DHT22;1747;48.884;9.160;2022-08-07T15:44:06;40.50;34.90
3466;DHT22;1747;48.884;9.160;2022-08-07T15:46:36;40.30;35.10
3466;DHT22;1747;48.884;9.160;2022-08-07T15:49:05;39.80;35.50
3466;DHT22;1747;48.884;9.160;2022-08-07T15:51:33;39.90;35.50
3466;DHT22;1747;48.884;9.160;2022-08-07T15:54:02;39.60;35.80
3466;DHT22;1747;48.884;9.160;2022-08-07T15:56:33;39.00;36.20
3466;DHT22;1747;48.884;9.160;2022-08-07T15:59:03;38.70;36.00
3466;DHT22;1747;48.884;9.160;2022-08-07T22:50:05;18.90;71.20
3466;DHT22;1747;48.884;9.160;2022-08-07T22:52:57;18.80;71.40
3466;DHT22;1747;48.884;9.160;2022-08-07T22:55:45;18.70;71.60
3466;DHT22;1747;48.884;9.160;2022-08-07T22:58:44;18.70;71.70
3466;DHT22;1747;48.884;9.160;2022-08-07T23:01:34;18.80;71.60
3466;DHT22;1747;48.884;9.160;2022-08-07T23:04:14;18.80;71.80
3466;DHT22;1747;48.884;9.160;2022-08-07T23:07:02;18.70;73.00
3466;DHT22;1747;48.884;9.160;2022-08-07T23:09:37;18.50;73.70
3466;DHT22;1747;48.884;9.160;2022-08-07T23:12:14;18.30;75.30
3466;DHT22;1747;48.884;9.160;2022-08-07T23:15:05;18.00;76.30
3466;DHT22;1747;48.884;9.160;2022-08-07T23:17:42;17.90;76.90
3466;DHT22;1747;48.884;9.160;2022-08-07T23:20:20;17.90;75.40
3466;DHT22;1747;48.884;9.160;2022-08-07T23:23:24;17.90;74.80
3466;DHT22;1747;48.884;9.160;2022-08-07T23:26:11;17.80;76.10
3466;DHT22;1747;48.884;9.160;2022-08-07T23:29:07;17.80;75.40
3466;DHT22;1747;48.884;9.160;2022-08-07T23:31:46;17.70;75.70
3466;DHT22;1747;48.884;9.160;2022-08-07T23:34:29;17.70;75.20
3466;DHT22;1747;48.884;9.160;2022-08-07T23:40:02;17.80;75.50
3466;DHT22;1747;48.884;9.160;2022-08-07T23:42:48;17.80;75.70
3466;DHT22;1747;48.884;9.160;2022-08-07T23:45:25;17.80;75.80
3466;DHT22;1747;48.884;9.160;2022-08-07T23:48:09;17.90;75.60
3466;DHT22;1747;48.884;9.160;2022-08-07T23:50:45;17.90;75.50
3466;DHT22;1747;48.884;9.160;2022-08-07T23:53:37;17.90;75.10
3466;DHT22;1747;48.884;9.160;2022-08-07T23:56:14;17.90;74.30
3466;DHT22;1747;48.884;9.160;2022-08-07T23:58:51;17.90;74.20
